Time;durP1;ratioP1;P1;durP2;ratioP2;P2;SDS_P1;SDS_P2;PMS_P1;PMS_P2;Temp;Humidity;BMP_temperature;BMP_pressure;BME280_temperature;BME280_humidity;BME280_pressure;Samples;Min_cycle;Max_cycle;Signal;HPM_P1;HPM_P2
2023/03/31 21:18:29;;;;;;;;;;;;;;;12.46;53.53;93865.81;5111349;23;20681;-55
2023/03/31 21:20:31;;;;;;;;;;;;;;;12.46;53.67;93871.06;5115292;23;19920;-51
2023/03/31 21:22:34;;;;;;;;;;;;;;;12.45;53.90;93872.06;5089096;23;19921;-54
2023/03/31 21:24:35;;;;;;;;;;;;;;;12.48;53.70;93868.25;5115833;23;20406;-52
2023/03/31 21:26:37;;;;;;;;;;;;;;;12.44;53.83;93867.81;5115123;23;19959;-56
2023/03/31 21:28:39;;;;;;;;;;;;;;;12.45;54.02;93861.56;5115258;23;19924;-53
2023/03/31 21:30:47;;;;;;;;;;;;;;;12.49;53.93;93872.50;5116267;23;19927;-53
2023/03/31 21:32:49;;;;;;;;;;;;;;;12.53;54.04;93875.56;5114103;23;19924;-57
2023/03/31 21:34:50;;;;;;;;;;;;;;;12.54;53.69;93872.75;5114553;23;19920;-55
2023/03/31 21:36:52;;;;;;;;;;;;;;;12.55;53.76;93857.78;5114835;23;19921;-53
2023/03/31 21:38:54;;;;;;;;;;;;;;;12.53;54.23;93860.59;5115527;23;19925;-56
2023/03/31 21:40:56;;;;;;;;;;;;;;;12.51;54.18;93865.22;5115649;23;19972;-54
2023/03/31 21:42:57;;;;;;;;;;;;;;;12.47;54.23;93861.34;5114782;23;19924;-57
2023/03/31 21:44:59;;;;;;;;;;;;;;;12.42;54.34;93867.19;5115758;23;20327;-55
2023/03/31 21:47:00;;;;;;;;;;;;;;;12.37;55.17;93863.50;5115116;23;19920;-56
2023/03/31 21:49:02;;;;;;;;;;;;;;;12.37;55.24;93851.19;5112714;23;20327;-54
2023/03/31 21:51:04;;;;;;;;;;;;;;;12.36;54.37;93856.63;5116054;23;20372;-55
2023/03/31 21:53:06;;;;;;;;;;;;;;;12.24;55.02;93859.78;5114546;23;19931;-54
2023/03/31 21:55:08;;;;;;;;;;;;;;;12.11;55.15;93851.81;5087702;23;19933;-51
2023/03/31 21:57:10;;;;;;;;;;;;;;;12.02;54.95;93861.63;5114451;23;20359;-48
2023/03/31 21:59:11;;;;;;;;;;;;;;;12.09;54.57;93856.44;5085800;23;19921;-50
2023/03/31 22:01:13;;;;;;;;;;;;;;;12.12;54.83;93850.78;5112241;23;19928;-52
2023/03/31 22:03:15;;;;;;;;;;;;;;;12.16;54.67;93857.28;5111713;23;19971;-47
2023/03/31 22:05:23;;;;;;;;;;;;;;;12.20;54.43;93841.97;5112986;23;20331;-50
2023/03/31 22:07:24;;;;;;;;;;;;;;;12.12;54.86;93829.78;5114595;23;20363;-55
2023/03/31 22:09:26;;;;;;;;;;;;;;;12.03;54.74;93841.44;5088281;23;19929;-54
2023/03/31 22:11:27;;;;;;;;;;;;;;;12.04;54.73;93841.22;5115103;23;20335;-55
2023/03/31 22:13:29;;;;;;;;;;;;;;;12.09;54.74;93836.22;5114653;23;19928;-54
2023/03/31 22:15:30;;;;;;;;;;;;;;;12.11;54.68;93837.84;5114794;23;20324;-57
2023/03/31 22:17:33;;;;;;;;;;;;;;;12.08;54.48;93833.78;5113613;23;19920;-56
2023/03/31 22:19:34;;;;;;;;;;;;;;;12.16;54.40;93838.91;5086605;23;19931;-55
2023/03/31 22:21:36;;;;;;;;;;;;;;;12.13;54.70;93838.47;5088483;23;20292;-52
2023/03/31 22:23:38;;;;;;;;;;;;;;;12.20;54.30;93831.47;5112120;23;19932;-52
2023/03/31 22:25:39;;;;;;;;;;;;;;;12.18;54.16;93828.22;5066801;23;19928;-52
2023/03/31 22:27:41;;;;;;;;;;;;;;;12.17;54.53;93829.22;5089902;23;19920;-51
2023/03/31 22:29:42;;;;;;;;;;;;;;;12.23;54.34;93828.47;5089122;23;19921;-56
2023/03/31 22:31:44;;;;;;;;;;;;;;;12.20;54.84;93832.28;5089870;23;19999;-52
2023/03/31 22:33:47;;;;;;;;;;;;;;;12.12;55.02;93831.59;5087279;23;19955;-52
2023/03/31 22:35:49;;;;;;;;;;;;;;;12.13;55.34;93830.59;5088930;23;20244;-55
2023/03/31 22:37:51;;;;;;;;;;;;;;;12.19;55.25;93835.09;5090559;23;19921;-49
2023/03/31 22:39:52;;;;;;;;;;;;;;;12.25;54.87;93832.50;5089983;23;19921;-51
2023/03/31 22:41:54;;;;;;;;;;;;;;;12.30;54.50;93845.06;5089482;23;19924;-53
2023/03/31 22:43:55;;;;;;;;;;;;;;;12.32;54.56;93835.19;5089706;23;19931;-49
2023/03/31 22:46:01;;;;;;;;;;;;;;;12.22;54.94;93839.97;5090747;23;19920;-51
2023/03/31 22:48:03;;;;;;;;;;;;;;;11.99;55.77;93845.44;5089074;23;19932;-56
2023/03/31 22:50:06;;;;;;;;;;;;;;;11.94;55.95;93832.88;5090015;23;19925;-53
2023/03/31 22:52:07;;;;;;;;;;;;;;;11.94;56.23;93832.88;5090609;23;19925;-53
2023/03/31 22:54:15;;;;;;;;;;;;;;;12.03;55.98;93828.31;5090502;23;20463;-56
2023/03/31 22:59:09;;;;;;;;;;;;;;;12.14;55.32;93826.97;5065568;23;20414;-72
2023/03/31 23:01:13;;;;;;;;;;;;;;;12.14;55.53;93826.97;5042026;23;20248;-71
2023/03/31 23:03:15;;;;;;;;;;;;;;;12.21;55.59;93831.25;5046991;23;19921;-72
2023/03/31 23:05:16;;;;;;;;;;;;;;;12.27;55.12;93822.63;5091764;23;19924;-71
2023/03/31 23:07:20;;;;;;;;;;;;;;;12.35;55.07;93823.50;5092358;23;19925;-72
2023/03/31 23:09:22;;;;;;;;;;;;;;;12.37;55.05;93816.22;5092060;23;19963;-71
2023/03/31 23:11:24;;;;;;;;;;;;;;;12.40;55.03;93815.84;5067537;23;20283;-73
2023/03/31 23:13:26;;;;;;;;;;;;;;;12.36;55.31;93814.59;5066251;23;19929;-73
2023/03/31 23:15:28;;;;;;;;;;;;;;;12.11;55.68;93817.69;5066949;23;20358;-72
2023/03/31 23:19:50;;;;;;;;;;;;;;;12.09;56.25;93815.22;5091609;23;19988;-73
2023/03/31 23:21:51;;;;;;;;;;;;;;;12.14;56.18;93814.66;5093735;23;19920;-70
2023/03/31 23:23:54;;;;;;;;;;;;;;;12.22;55.65;93808.47;5093528;23;19999;-73
2023/03/31 23:25:59;;;;;;;;;;;;;;;12.22;55.51;93793.50;5067402;23;19943;-73
2023/03/31 23:28:00;;;;;;;;;;;;;;;12.05;55.88;93800.06;5066977;23;19925;-76
2023/03/31 23:30:02;;;;;;;;;;;;;;;12.10;55.79;93795.03;5093545;23;19921;-72
2023/03/31 23:32:04;;;;;;;;;;;;;;;12.02;55.76;93790.75;5093310;23;19921;-71
2023/03/31 23:34:06;;;;;;;;;;;;;;;11.98;56.37;93796.53;5091435;23;19921;-74
2023/03/31 23:36:08;;;;;;;;;;;;;;;12.03;55.51;93791.56;5093814;23;20453;-72
2023/03/31 23:38:09;;;;;;;;;;;;;;;12.05;55.42;93786.94;5092561;23;19928;-69
2023/03/31 23:40:12;;;;;;;;;;;;;;;12.09;55.76;93782.91;5091883;23;19995;-71
2023/03/31 23:42:18;;;;;;;;;;;;;;;12.09;55.47;93777.66;5090902;23;19972;-71
2023/03/31 23:44:20;;;;;;;;;;;;;;;12.19;55.25;93770.25;5077308;23;20374;-69
2023/03/31 23:46:23;;;;;;;;;;;;;;;12.20;55.25;93769.25;5087313;23;19920;-70
2023/03/31 23:48:24;;;;;;;;;;;;;;;12.14;55.16;93772.66;5091747;23;19967;-70
2023/03/31 23:50:27;;;;;;;;;;;;;;;12.14;55.19;93766.59;5092581;23;20137;-69
2023/03/31 23:52:29;;;;;;;;;;;;;;;12.07;55.45;93767.34;5066371;23;19943;-71
2023/03/31 23:54:31;;;;;;;;;;;;;;;11.96;56.18;93764.41;5092571;23;19921;-70
2023/03/31 23:56:33;;;;;;;;;;;;;;;11.96;56.05;93759.16;5091692;23;20208;-71
2023/03/31 23:58:35;;;;;;;;;;;;;;;11.93;56.33;93759.56;5091604;23;19977;-71
